sensor_id;sensor_type;location;lat;lon;timestamp;temperature;humidity
4725;DHT22;2376;53.544;10.226;2022-10-31T00:00:57;15.00;99.90
4725;DHT22;2376;53.544;10.226;2022-10-31T00:03:24;15.00;99.90
4725;DHT22;2376;53.544;10.226;2022-10-31T00:05:52;15.00;99.90
4725;DHT22;2376;53.544;10.226;2022-10-31T00:08:19;15.00;99.90
4725;DHT22;2376;53.544;10.226;2022-10-31T00:10:46;14.90;99.90
4725;DHT22;2376;53.544;10.226;2022-10-31T00:13:14;14.90;99.90
4725;DHT22;2376;53.544;10.226;2022-10-31T00:15:41;14.90;99.90
4725;DHT22;2376;53.544;10.226;2022-10-31T00:18:10;14.90;99.90
4725;DHT22;2376;53.544;10.226;2022-10-31T00:20:38;14.90;99.90
4725;DHT22;2376;53.544;10.226;2022-10-31T00:23:06;14.80;99.90
4725;DHT22;2376;53.544;10.226;2022-10-31T00:25:34;14.80;99.90
4725;DHT22;2376;53.544;10.226;2022-10-31T00:28:01;14.80;99.90
4725;DHT22;2376;53.544;10.226;2022-10-31T00:30:28;14.90;99.90
4725;DHT22;2376;53.544;10.226;2022-10-31T00:32:55;14.90;99.90
4725;DHT22;2376;53.544;10.226;2022-10-31T00:35:23;14.80;99.90
4725;DHT22;2376;53.544;10.226;2022-10-31T00:37:50;14.90;99.90
4725;DHT22;2376;53.544;10.226;2022-10-31T00:40:17;14.80;99.90
4725;DHT22;2376;53.544;10.226;2022-10-31T00:42:43;14.90;99.90
4725;DHT22;2376;53.544;10.226;2022-10-31T00:45:10;14.90;99.90
4725;DHT22;2376;53.544;10.226;2022-10-31T00:47:37;14.90;99.90
4725;DHT22;2376;53.544;10.226;2022-10-31T00:50:05;14.90;99.90
4725;DHT22;2376;53.544;10.226;2022-10-31T00:52:33;14.90;99.90
4725;DHT22;2376;53.544;10.226;2022-10-31T00:55:00;14.90;99.90
4725;DHT22;2376;53.544;10.226;2022-10-31T00:57:26;14.90;99.90
4725;DHT22;2376;53.544;10.226;2022-10-31T00:59:53;14.90;99.90
4725;DHT22;2376;53.544;10.226;2022-10-31T01:02:20;14.90;99.90
4725;DHT22;2376;53.544;10.226;2022-10-31T01:04:47;14.90;99.90
4725;DHT22;2376;53.544;10.226;2022-10-31T01:07:13;14.90;99.90
4725;DHT22;2376;53.544;10.226;2022-10-31T01:09:41;14.90;99.90
4725;DHT22;2376;53.544;10.226;2022-10-31T01:12:08;14.80;99.90
4725;DHT22;2376;53.544;10.226;2022-10-31T01:14:35;14.80;99.90
4725;DHT22;2376;53.544;10.226;2022-10-31T01:17:02;14.80;99.90
4725;DHT22;2376;53.544;10.226;2022-10-31T01:19:29;14.80;99.90
4725;DHT22;2376;53.544;10.226;2022-10-31T01:21:55;14.80;99.90
4725;DHT22;2376;53.544;10.226;2022-10-31T01:24:22;14.80;99.90
4725;DHT22;2376;53.544;10.226;2022-10-31T01:26:50;14.70;99.90
4725;DHT22;2376;53.544;10.226;2022-10-31T01:29:20;14.70;99.90
4725;DHT22;2376;53.544;10.226;2022-10-31T01:31:47;14.70;99.90
4725;DHT22;2376;53.544;10.226;2022-10-31T01:34:16;14.70;99.90
4725;DHT22;2376;53.544;10.226;2022-10-31T01:36:45;14.70;99.90
4725;DHT22;2376;53.544;10.226;2022-10-31T01:39:17;14.70;99.90
4725;DHT22;2376;53.544;10.226;2022-10-31T01:41:46;14.70;99.90
4725;DHT22;2376;53.544;10.226;2022-10-31T01:47:32;14.70;99.90
4725;DHT22;2376;53.544;10.226;2022-10-31T01:50:03;14.70;99.90
4725;DHT22;2376;53.544;10.226;2022-10-31T01:52:34;14.70;99.90
4725;DHT22;2376;53.544;10.226;2022-10-31T01:55:05;14.80;99.90
4725;DHT22;2376;53.544;10.226;2022-10-31T01:57:35;14.80;99.90
4725;DHT22;2376;53.544;10.226;2022-10-31T02:00:07;14.80;99.90
4725;DHT22;2376;53.544;10.226;2022-10-31T02:02:36;14.90;99.90
4725;DHT22;2376;53.544;10.226;2022-10-31T02:05:07;14.90;99.90
4725;DHT22;2376;53.544;10.226;2022-10-31T02:07:39;15.00;99.90
4725;DHT22;2376;53.544;10.226;2022-10-31T02:10:08;15.00;99.90
4725;DHT22;2376;53.544;10.226;2022-10-31T02:12:35;15.00;99.90
4725;DHT22;2376;53.544;10.226;2022-10-31T02:15:04;15.00;99.90
4725;DHT22;2376;53.544;10.226;2022-10-31T02:17:31;15.10;99.90
4725;DHT22;2376;53.544;10.226;2022-10-31T02:20:11;15.10;99.90
4725;DHT22;2376;53.544;10.226;2022-10-31T02:22:45;15.10;99.90
4725;DHT22;2376;53.544;10.226;2022-10-31T02:25:37;15.20;99.90
4725;DHT22;2376;53.544;10.226;2022-10-31T02:28:24;15.10;99.90
4725;DHT22;2376;53.544;10.226;2022-10-31T02:31:07;15.10;99.90
4725;DHT22;2376;53.544;10.226;2022-10-31T02:33:43;15.10;99.90
4725;DHT22;2376;53.544;10.226;2022-10-31T02:36:16;15.10;99.90
4725;DHT22;2376;53.544;10.226;2022-10-31T02:38:52;15.10;99.90
4725;DHT22;2376;53.544;10.226;2022-10-31T02:41:28;15.20;99.90
4725;DHT22;2376;53.544;10.226;2022-10-31T02:44:05;15.20;99.90
4725;DHT22;2376;53.544;10.226;2022-10-31T02:46:39;15.20;99.90
4725;DHT22;2376;53.544;10.226;2022-10-31T02:49:14;15.20;99.90
4725;DHT22;2376;53.544;10.226;2022-10-31T02:51:45;15.20;99.90
4725;DHT22;2376;53.544;10.226;2022-10-31T02:54:21;15.20;99.90
4725;DHT22;2376;53.544;10.226;2022-10-31T02:56:49;15.30;99.90
4725;DHT22;2376;53.544;10.226;2022-10-31T02:59:17;15.30;99.90
4725;DHT22;2376;53.544;10.226;2022-10-31T03:01:58;15.30;99.90
4725;DHT22;2376;53.544;10.226;2022-10-31T03:04:52;15.30;99.90
4725;DHT22;2376;53.544;10.226;2022-10-31T03:07:25;15.30;99.90
4725;DHT22;2376;53.544;10.226;2022-10-31T03:09:59;15.30;99.90
4725;DHT22;2376;53.544;10.226;2022-10-31T03:12:30;15.30;99.90
4725;DHT22;2376;53.544;10.226;2022-10-31T03:15:11;15.30;99.90
4725;DHT22;2376;53.544;10.226;2022-10-31T03:17:47;15.30;99.90
4725;DHT22;2376;53.544;10.226;2022-10-31T03:20:19;15.30;99.90
4725;DHT22;2376;53.544;10.226;2022-10-31T03:22:48;15.40;99.90
4725;DHT22;2376;53.544;10.226;2022-10-31T03:25:16;15.40;99.90
4725;DHT22;2376;53.544;10.226;2022-10-31T03:27:44;15.30;99.90
4725;DHT22;2376;53.544;10.226;2022-10-31T03:30:11;15.30;99.90
4725;DHT22;2376;53.544;10.226;2022-10-31T03:32:43;15.30;99.90
4725;DHT22;2376;53.544;10.226;2022-10-31T03:35:13;15.30;99.90
4725;DHT22;2376;53.544;10.226;2022-10-31T03:37:41;15.30;99.90
4725;DHT22;2376;53.544;10.226;2022-10-31T03:40:10;15.30;99.90
4725;DHT22;2376;53.544;10.226;2022-10-31T03:42:40;15.40;99.90
4725;DHT22;2376;53.544;10.226;2022-10-31T03:45:11;15.40;99.90
4725;DHT22;2376;53.544;10.226;2022-10-31T03:47:41;15.40;99.90
4725;DHT22;2376;53.544;10.226;2022-10-31T03:50:10;15.40;99.90
4725;DHT22;2376;53.544;10.226;2022-10-31T03:52:42;15.40;99.90
4725;DHT22;2376;53.544;10.226;2022-10-31T03:55:17;15.40;99.90
4725;DHT22;2376;53.544;10.226;2022-10-31T03:57:48;15.40;99.90
4725;DHT22;2376;53.544;10.226;2022-10-31T04:00:18;15.40;99.90
4725;DHT22;2376;53.544;10.226;2022-10-31T04:02:50;15.40;99.90
4725;DHT22;2376;53.544;10.226;2022-10-31T04:05:20;15.40;99.90
4725;DHT22;2376;53.544;10.226;2022-10-31T04:07:50;15.40;99.90
4725;DHT22;2376;53.544;10.226;2022-10-31T04:10:18;15.40;99.90
4725;DHT22;2376;53.544;10.226;2022-10-31T04:12:49;15.40;99.90
4725;DHT22;2376;53.544;10.226;2022-10-31T04:15:18;15.40;99.90
4725;DHT22;2376;53.544;10.226;2022-10-31T04:17:47;15.40;99.90
4725;DHT22;2376;53.544;10.226;2022-10-31T04:20:17;15.40;99.90
4725;DHT22;2376;53.544;10.226;2022-10-31T04:22:44;15.40;99.90
4725;DHT22;2376;53.544;10.226;2022-10-31T04:25:11;15.40;99.90
4725;DHT22;2376;53.544;10.226;2022-10-31T04:27:37;15.40;99.90
4725;DHT22;2376;53.544;10.226;2022-10-31T04:30:05;15.40;99.90
4725;DHT22;2376;53.544;10.226;2022-10-31T04:32:32;15.40;99.90
4725;DHT22;2376;53.544;10.226;2022-10-31T04:35:00;15.40;99.90
4725;DHT22;2376;53.544;10.226;2022-10-31T04:37:26;15.40;99.90
4725;DHT22;2376;53.544;10.226;2022-10-31T04:39:53;15.40;99.90
4725;DHT22;2376;53.544;10.226;2022-10-31T04:42:20;15.30;99.90
4725;DHT22;2376;53.544;10.226;2022-10-31T04:44:46;15.30;99.90
4725;DHT22;2376;53.544;10.226;2022-10-31T04:47:13;15.30;99.90
4725;DHT22;2376;53.544;10.226;2022-10-31T04:49:40;15.30;99.90
4725;DHT22;2376;53.544;10.226;2022-10-31T04:52:08;15.20;99.90
4725;DHT22;2376;53.544;10.226;2022-10-31T04:54:34;15.20;99.90
4725;DHT22;2376;53.544;10.226;2022-10-31T04:57:01;15.20;99.90
4725;DHT22;2376;53.544;10.226;2022-10-31T04:59:28;15.20;99.90
4725;DHT22;2376;53.544;10.226;2022-10-31T05:01:54;15.20;99.90
4725;DHT22;2376;53.544;10.226;2022-10-31T05:04:21;15.10;99.90
4725;DHT22;2376;53.544;10.226;2022-10-31T05:06:48;15.10;99.90
4725;DHT22;2376;53.544;10.226;2022-10-31T05:09:16;15.10;99.90
4725;DHT22;2376;53.544;10.226;2022-10-31T05:11:42;15.10;99.90
4725;DHT22;2376;53.544;10.226;2022-10-31T05:14:09;15.10;99.90
4725;DHT22;2376;53.544;10.226;2022-10-31T05:16:36;15.10;99.90
4725;DHT22;2376;53.544;10.226;2022-10-31T05:19:02;15.10;99.90
4725;DHT22;2376;53.544;10.226;2022-10-31T05:21:29;15.10;99.90
4725;DHT22;2376;53.544;10.226;2022-10-31T05:23:55;15.10;99.90
4725;DHT22;2376;53.544;10.226;2022-10-31T05:26:24;15.10;99.90
4725;DHT22;2376;53.544;10.226;2022-10-31T05:28:51;15.10;99.90
4725;DHT22;2376;53.544;10.226;2022-10-31T05:31:19;15.20;99.90
4725;DHT22;2376;53.544;10.226;2022-10-31T05:33:46;15.20;99.90
4725;DHT22;2376;53.544;10.226;2022-10-31T05:36:12;15.20;99.90
4725;DHT22;2376;53.544;10.226;2022-10-31T05:38:39;15.30;99.90
4725;DHT22;2376;53.544;10.226;2022-10-31T05:41:05;15.30;99.90
4725;DHT22;2376;53.544;10.226;2022-10-31T05:43:33;15.30;99.90
4725;DHT22;2376;53.544;10.226;2022-10-31T05:46:00;15.30;99.90
4725;DHT22;2376;53.544;10.226;2022-10-31T05:48:27;15.30;99.90
4725;DHT22;2376;53.544;10.226;2022-10-31T05:50:53;15.30;99.90
4725;DHT22;2376;53.544;10.226;2022-10-31T05:53:20;15.30;99.90
4725;DHT22;2376;53.544;10.226;2022-10-31T05:55:47;15.30;99.90
4725;DHT22;2376;53.544;10.226;2022-10-31T05:58:13;15.40;99.90
4725;DHT22;2376;53.544;10.226;2022-10-31T06:00:41;15.40;99.90
4725;DHT22;2376;53.544;10.226;2022-10-31T06:03:09;15.40;99.90
4725;DHT22;2376;53.544;10.226;2022-10-31T06:05:36;15.40;99.90
4725;DHT22;2376;53.544;10.226;2022-10-31T06:08:03;15.50;99.90
4725;DHT22;2376;53.544;10.226;2022-10-31T06:10:29;15.50;99.90
4725;DHT22;2376;53.544;10.226;2022-10-31T06:12:56;15.50;99.90
4725;DHT22;2376;53.544;10.226;2022-10-31T06:15:23;15.50;99.90
4725;DHT22;2376;53.544;10.226;2022-10-31T06:17:59;15.50;99.90
4725;DHT22;2376;53.544;10.226;2022-10-31T06:20:26;15.60;99.90
4725;DHT22;2376;53.544;10.226;2022-10-31T06:22:54;15.60;99.90
4725;DHT22;2376;53.544;10.226;2022-10-31T06:25:21;15.60;99.90
4725;DHT22;2376;53.544;10.226;2022-10-31T06:27:47;15.60;99.90
4725;DHT22;2376;53.544;10.226;2022-10-31T06:30:14;15.60;99.90
4725;DHT22;2376;53.544;10.226;2022-10-31T06:32:41;15.60;99.90
4725;DHT22;2376;53.544;10.226;2022-10-31T06:35:09;15.60;99.90
4725;DHT22;2376;53.544;10.226;2022-10-31T06:37:36;15.60;99.90
4725;DHT22;2376;53.544;10.226;2022-10-31T06:40:04;15.70;99.90
4725;DHT22;2376;53.544;10.226;2022-10-31T06:42:30;15.70;99.90
4725;DHT22;2376;53.544;10.226;2022-10-31T06:44:57;15.70;99.90
4725;DHT22;2376;53.544;10.226;2022-10-31T06:47:24;15.70;99.90
4725;DHT22;2376;53.544;10.226;2022-10-31T06:49:50;15.80;99.90
4725;DHT22;2376;53.544;10.226;2022-10-31T06:52:18;15.80;99.90
4725;DHT22;2376;53.544;10.226;2022-10-31T06:54:45;15.80;99.90
4725;DHT22;2376;53.544;10.226;2022-10-31T06:57:12;15.80;99.90
4725;DHT22;2376;53.544;10.226;2022-10-31T06:59:38;15.80;99.90
4725;DHT22;2376;53.544;10.226;2022-10-31T07:02:07;15.80;99.90
4725;DHT22;2376;53.544;10.226;2022-10-31T07:04:35;15.90;99.90
4725;DHT22;2376;53.544;10.226;2022-10-31T07:07:01;15.90;99.90
4725;DHT22;2376;53.544;10.226;2022-10-31T07:09:29;15.90;99.90
4725;DHT22;2376;53.544;10.226;2022-10-31T07:11:56;15.90;99.90
4725;DHT22;2376;53.544;10.226;2022-10-31T07:14:23;15.90;99.90
4725;DHT22;2376;53.544;10.226;2022-10-31T07:16:50;16.00;99.90
4725;DHT22;2376;53.544;10.226;2022-10-31T07:19:17;16.00;99.90
4725;DHT22;2376;53.544;10.226;2022-10-31T07:21:44;16.00;99.90
4725;DHT22;2376;53.544;10.226;2022-10-31T07:24:10;16.00;99.90
4725;DHT22;2376;53.544;10.226;2022-10-31T07:26:38;16.10;99.90
4725;DHT22;2376;53.544;10.226;2022-10-31T07:29:05;16.00;99.90
4725;DHT22;2376;53.544;10.226;2022-10-31T07:31:32;16.10;99.90
4725;DHT22;2376;53.544;10.226;2022-10-31T07:33:58;16.10;99.90
4725;DHT22;2376;53.544;10.226;2022-10-31T07:36:25;16.10;99.90
4725;DHT22;2376;53.544;10.226;2022-10-31T07:38:52;16.20;99.90
4725;DHT22;2376;53.544;10.226;2022-10-31T07:41:18;16.20;99.90
4725;DHT22;2376;53.544;10.226;2022-10-31T07:43:46;16.20;99.90
4725;DHT22;2376;53.544;10.226;2022-10-31T07:46:13;16.20;99.90
4725;DHT22;2376;53.544;10.226;2022-10-31T07:48:40;16.30;99.90
4725;DHT22;2376;53.544;10.226;2022-10-31T07:51:06;16.30;99.90
4725;DHT22;2376;53.544;10.226;2022-10-31T07:53:33;16.30;99.90
4725;DHT22;2376;53.544;10.226;2022-10-31T07:56:00;16.30;99.90
4725;DHT22;2376;53.544;10.226;2022-10-31T07:58:26;16.30;99.90
4725;DHT22;2376;53.544;10.226;2022-10-31T08:00:54;16.40;99.90
4725;DHT22;2376;53.544;10.226;2022-10-31T08:03:21;16.40;99.90
4725;DHT22;2376;53.544;10.226;2022-10-31T08:05:48;16.40;99.90
4725;DHT22;2376;53.544;10.226;2022-10-31T08:08:14;16.40;99.90
4725;DHT22;2376;53.544;10.226;2022-10-31T08:10:42;16.40;99.90
4725;DHT22;2376;53.544;10.226;2022-10-31T08:13:10;16.50;99.90
4725;DHT22;2376;53.544;10.226;2022-10-31T08:15:38;16.50;99.90
4725;DHT22;2376;53.544;10.226;2022-10-31T08:18:11;16.50;99.90
4725;DHT22;2376;53.544;10.226;2022-10-31T08:20:38;16.40;99.90
4725;DHT22;2376;53.544;10.226;2022-10-31T08:23:05;16.50;99.90
4725;DHT22;2376;53.544;10.226;2022-10-31T08:25:33;16.50;99.90
4725;DHT22;2376;53.544;10.226;2022-10-31T08:28:00;16.50;99.90
4725;DHT22;2376;53.544;10.226;2022-10-31T08:30:29;16.50;99.90
4725;DHT22;2376;53.544;10.226;2022-10-31T08:33:00;16.50;99.90
4725;DHT22;2376;53.544;10.226;2022-10-31T08:35:29;16.50;99.90
4725;DHT22;2376;53.544;10.226;2022-10-31T08:37:56;16.50;99.90
4725;DHT22;2376;53.544;10.226;2022-10-31T08:40:24;16.60;99.90
4725;DHT22;2376;53.544;10.226;2022-10-31T08:42:59;16.60;99.90
4725;DHT22;2376;53.544;10.226;2022-10-31T08:45:26;16.60;99.90
4725;DHT22;2376;53.544;10.226;2022-10-31T08:47:56;16.60;99.90
4725;DHT22;2376;53.544;10.226;2022-10-31T08:50:23;16.70;99.90
4725;DHT22;2376;53.544;10.226;2022-10-31T08:52:51;16.70;99.90
4725;DHT22;2376;53.544;10.226;2022-10-31T08:55:18;16.60;99.90
4725;DHT22;2376;53.544;10.226;2022-10-31T08:57:45;16.70;99.90
4725;DHT22;2376;53.544;10.226;2022-10-31T09:00:12;16.70;99.90
4725;DHT22;2376;53.544;10.226;2022-10-31T09:02:39;16.70;99.90
4725;DHT22;2376;53.544;10.226;2022-10-31T09:05:06;16.70;99.90
4725;DHT22;2376;53.544;10.226;2022-10-31T09:07:33;16.70;99.90
4725;DHT22;2376;53.544;10.226;2022-10-31T09:10:01;16.70;99.90
4725;DHT22;2376;53.544;10.226;2022-10-31T09:12:27;16.70;99.90
4725;DHT22;2376;53.544;10.226;2022-10-31T09:14:54;16.70;99.90
4725;DHT22;2376;53.544;10.226;2022-10-31T09:17:21;16.80;99.90
4725;DHT22;2376;53.544;10.226;2022-10-31T09:19:48;16.80;99.90
4725;DHT22;2376;53.544;10.226;2022-10-31T09:22:14;16.80;99.90
4725;DHT22;2376;53.544;10.226;2022-10-31T09:24:41;16.90;99.90
4725;DHT22;2376;53.544;10.226;2022-10-31T09:27:09;16.90;99.90
4725;DHT22;2376;53.544;10.226;2022-10-31T09:29:36;16.90;99.90
4725;DHT22;2376;53.544;10.226;2022-10-31T09:32:02;16.90;99.90
4725;DHT22;2376;53.544;10.226;2022-10-31T09:34:29;16.90;99.90
4725;DHT22;2376;53.544;10.226;2022-10-31T09:36:56;17.00;99.90
4725;DHT22;2376;53.544;10.226;2022-10-31T09:39:22;17.00;99.90
4725;DHT22;2376;53.544;10.226;2022-10-31T09:42:02;17.00;99.90
4725;DHT22;2376;53.544;10.226;2022-10-31T09:44:43;17.00;99.90
4725;DHT22;2376;53.544;10.226;2022-10-31T09:47:17;17.00;99.90
4725;DHT22;2376;53.544;10.226;2022-10-31T09:49:59;17.00;99.90
4725;DHT22;2376;53.544;10.226;2022-10-31T09:52:30;17.10;99.90
4725;DHT22;2376;53.544;10.226;2022-10-31T09:54:59;17.10;99.90
4725;DHT22;2376;53.544;10.226;2022-10-31T09:57:29;17.10;99.90
4725;DHT22;2376;53.544;10.226;2022-10-31T09:59:59;17.20;99.90
4725;DHT22;2376;53.544;10.226;2022-10-31T10:02:32;17.20;99.90
4725;DHT22;2376;53.544;10.226;2022-10-31T10:05:02;17.00;99.90
4725;DHT22;2376;53.544;10.226;2022-10-31T10:07:38;17.00;99.90
4725;DHT22;2376;53.544;10.226;2022-10-31T10:10:14;17.00;99.90
4725;DHT22;2376;53.544;10.226;2022-10-31T10:12:57;17.20;99.90
4725;DHT22;2376;53.544;10.226;2022-10-31T10:15:51;17.20;99.90
4725;DHT22;2376;53.544;10.226;2022-10-31T10:18:30;17.00;99.90
4725;DHT22;2376;53.544;10.226;2022-10-31T10:21:10;17.10;99.90
4725;DHT22;2376;53.544;10.226;2022-10-31T10:23:54;16.90;99.90
4725;DHT22;2376;53.544;10.226;2022-10-31T10:26:28;16.80;99.90
4725;DHT22;2376;53.544;10.226;2022-10-31T10:29:00;16.70;99.90
4725;DHT22;2376;53.544;10.226;2022-10-31T10:31:35;16.90;99.90
4725;DHT22;2376;53.544;10.226;2022-10-31T10:34:10;17.00;99.90
4725;DHT22;2376;53.544;10.226;2022-10-31T10:36:41;17.00;99.90
4725;DHT22;2376;53.544;10.226;2022-10-31T10:39:16;17.10;99.90
4725;DHT22;2376;53.544;10.226;2022-10-31T10:41:49;17.20;99.90
4725;DHT22;2376;53.544;10.226;2022-10-31T10:44:30;17.40;99.90
4725;DHT22;2376;53.544;10.226;2022-10-31T10:47:16;17.40;99.90
4725;DHT22;2376;53.544;10.226;2022-10-31T10:50:05;17.50;99.90
4725;DHT22;2376;53.544;10.226;2022-10-31T10:52:40;17.50;99.90
4725;DHT22;2376;53.544;10.226;2022-10-31T10:55:15;17.60;99.90
4725;DHT22;2376;53.544;10.226;2022-10-31T10:57:52;17.60;99.90
4725;DHT22;2376;53.544;10.226;2022-10-31T11:00:23;17.70;99.90
4725;DHT22;2376;53.544;10.226;2022-10-31T11:02:52;17.70;99.90
4725;DHT22;2376;53.544;10.226;2022-10-31T11:05:28;17.80;99.90
4725;DHT22;2376;53.544;10.226;2022-10-31T11:07:56;17.90;99.90
4725;DHT22;2376;53.544;10.226;2022-10-31T11:10:23;17.90;99.90
4725;DHT22;2376;53.544;10.226;2022-10-31T11:13:14;17.90;99.90
4725;DHT22;2376;53.544;10.226;2022-10-31T11:15:51;17.90;99.90
4725;DHT22;2376;53.544;10.226;2022-10-31T11:18:22;17.90;99.90
4725;DHT22;2376;53.544;10.226;2022-10-31T11:20:52;18.00;99.90
4725;DHT22;2376;53.544;10.226;2022-10-31T11:23:21;18.00;99.90
4725;DHT22;2376;53.544;10.226;2022-10-31T11:25:50;18.10;99.90
4725;DHT22;2376;53.544;10.226;2022-10-31T11:28:17;18.10;99.90
4725;DHT22;2376;53.544;10.226;2022-10-31T11:30:46;18.20;99.90
4725;DHT22;2376;53.544;10.226;2022-10-31T11:33:19;18.20;99.90
4725;DHT22;2376;53.544;10.226;2022-10-31T11:35:48;18.20;99.90
4725;DHT22;2376;53.544;10.226;2022-10-31T11:38:18;18.30;99.90
4725;DHT22;2376;53.544;10.226;2022-10-31T11:40:58;18.20;99.90
4725;DHT22;2376;53.544;10.226;2022-10-31T11:43:26;18.10;99.90
4725;DHT22;2376;53.544;10.226;2022-10-31T11:45:53;18.20;99.90
4725;DHT22;2376;53.544;10.226;2022-10-31T11:48:21;18.20;99.90
4725;DHT22;2376;53.544;10.226;2022-10-31T11:50:51;18.20;99.90
4725;DHT22;2376;53.544;10.226;2022-10-31T11:53:22;18.20;99.90
4725;DHT22;2376;53.544;10.226;2022-10-31T11:56:03;18.20;99.90
4725;DHT22;2376;53.544;10.226;2022-10-31T11:58:31;18.20;99.90
4725;DHT22;2376;53.544;10.226;2022-10-31T12:00:58;18.20;99.90
4725;DHT22;2376;53.544;10.226;2022-10-31T12:03:37;18.20;99.90
4725;DHT22;2376;53.544;10.226;2022-10-31T12:06:09;18.20;99.90
4725;DHT22;2376;53.544;10.226;2022-10-31T12:08:37;18.20;99.90
4725;DHT22;2376;53.544;10.226;2022-10-31T12:11:11;18.30;99.90
4725;DHT22;2376;53.544;10.226;2022-10-31T12:13:49;18.20;99.90
4725;DHT22;2376;53.544;10.226;2022-10-31T12:16:22;18.20;99.90
4725;DHT22;2376;53.544;10.226;2022-10-31T12:18:57;18.30;99.90
4725;DHT22;2376;53.544;10.226;2022-10-31T12:21:36;18.40;99.90
4725;DHT22;2376;53.544;10.226;2022-10-31T12:24:12;18.40;99.90
4725;DHT22;2376;53.544;10.226;2022-10-31T12:26:50;18.40;99.90
4725;DHT22;2376;53.544;10.226;2022-10-31T12:29:32;18.40;99.90
4725;DHT22;2376;53.544;10.226;2022-10-31T12:32:15;18.40;99.90
4725;DHT22;2376;53.544;10.226;2022-10-31T12:34:56;18.40;99.90
4725;DHT22;2376;53.544;10.226;2022-10-31T12:37:39;18.40;99.90
4725;DHT22;2376;53.544;10.226;2022-10-31T12:40:26;18.40;99.90
4725;DHT22;2376;53.544;10.226;2022-10-31T12:43:08;18.50;99.90
4725;DHT22;2376;53.544;10.226;2022-10-31T12:45:49;18.50;99.90
4725;DHT22;2376;53.544;10.226;2022-10-31T12:48:38;18.60;99.90
4725;DHT22;2376;53.544;10.226;2022-10-31T12:51:14;18.70;99.90
4725;DHT22;2376;53.544;10.226;2022-10-31T12:53:54;18.80;99.90
4725;DHT22;2376;53.544;10.226;2022-10-31T12:56:34;18.80;99.90
4725;DHT22;2376;53.544;10.226;2022-10-31T12:59:08;18.80;99.90
4725;DHT22;2376;53.544;10.226;2022-10-31T13:01:39;18.90;99.90
4725;DHT22;2376;53.544;10.226;2022-10-31T13:04:14;18.90;99.90
4725;DHT22;2376;53.544;10.226;2022-10-31T13:06:44;18.90;99.90
4725;DHT22;2376;53.544;10.226;2022-10-31T13:09:18;18.90;99.90
4725;DHT22;2376;53.544;10.226;2022-10-31T13:11:51;18.90;99.90
4725;DHT22;2376;53.544;10.226;2022-10-31T13:14:25;18.90;99.90
4725;DHT22;2376;53.544;10.226;2022-10-31T13:16:54;18.80;99.90
4725;DHT22;2376;53.544;10.226;2022-10-31T13:19:24;18.90;99.90
4725;DHT22;2376;53.544;10.226;2022-10-31T13:21:57;18.80;99.90
4725;DHT22;2376;53.544;10.226;2022-10-31T13:24:33;18.80;99.90
4725;DHT22;2376;53.544;10.226;2022-10-31T13:27:02;18.80;99.90
4725;DHT22;2376;53.544;10.226;2022-10-31T13:29:37;18.80;99.90
4725;DHT22;2376;53.544;10.226;2022-10-31T13:32:05;18.70;99.90
4725;DHT22;2376;53.544;10.226;2022-10-31T13:34:34;18.70;99.90
4725;DHT22;2376;53.544;10.226;2022-10-31T13:37:07;18.70;99.90
4725;DHT22;2376;53.544;10.226;2022-10-31T13:39:49;18.60;99.90
4725;DHT22;2376;53.544;10.226;2022-10-31T13:42:21;18.50;99.90
4725;DHT22;2376;53.544;10.226;2022-10-31T13:44:50;18.40;99.90
4725;DHT22;2376;53.544;10.226;2022-10-31T13:47:24;18.50;99.90
4725;DHT22;2376;53.544;10.226;2022-10-31T13:49:51;18.50;99.90
4725;DHT22;2376;53.544;10.226;2022-10-31T13:52:23;18.60;99.90
4725;DHT22;2376;53.544;10.226;2022-10-31T13:54:53;18.50;99.90
4725;DHT22;2376;53.544;10.226;2022-10-31T13:57:34;18.50;99.90
4725;DHT22;2376;53.544;10.226;2022-10-31T14:00:06;18.50;99.90
4725;DHT22;2376;53.544;10.226;2022-10-31T14:02:46;18.60;99.90
4725;DHT22;2376;53.544;10.226;2022-10-31T14:05:22;18.50;99.90
4725;DHT22;2376;53.544;10.226;2022-10-31T14:07:49;18.50;99.90
4725;DHT22;2376;53.544;10.226;2022-10-31T14:10:25;18.40;99.90
4725;DHT22;2376;53.544;10.226;2022-10-31T14:12:55;18.40;99.90
4725;DHT22;2376;53.544;10.226;2022-10-31T14:15:29;18.40;99.90
4725;DHT22;2376;53.544;10.226;2022-10-31T14:18:00;18.40;99.90
4725;DHT22;2376;53.544;10.226;2022-10-31T14:20:38;18.40;99.90
4725;DHT22;2376;53.544;10.226;2022-10-31T14:26:06;18.30;99.90
4725;DHT22;2376;53.544;10.226;2022-10-31T14:28:35;18.20;99.90
4725;DHT22;2376;53.544;10.226;2022-10-31T14:31:02;18.10;99.90
4725;DHT22;2376;53.544;10.226;2022-10-31T14:33:29;18.00;99.90
4725;DHT22;2376;53.544;10.226;2022-10-31T14:36:01;18.00;99.90
4725;DHT22;2376;53.544;10.226;2022-10-31T14:38:43;17.80;99.90
4725;DHT22;2376;53.544;10.226;2022-10-31T14:41:34;17.40;99.90
4725;DHT22;2376;53.544;10.226;2022-10-31T14:44:23;17.30;99.90
4725;DHT22;2376;53.544;10.226;2022-10-31T14:46:59;17.40;99.90
4725;DHT22;2376;53.544;10.226;2022-10-31T14:49:46;17.30;99.90
4725;DHT22;2376;53.544;10.226;2022-10-31T14:52:16;17.10;99.90
4725;DHT22;2376;53.544;10.226;2022-10-31T14:54:48;16.80;99.90
4725;DHT22;2376;53.544;10.226;2022-10-31T14:57:20;17.00;99.90
4725;DHT22;2376;53.544;10.226;2022-10-31T14:59:51;16.90;99.90
4725;DHT22;2376;53.544;10.226;2022-10-31T15:02:21;17.00;99.90
4725;DHT22;2376;53.544;10.226;2022-10-31T15:04:51;16.80;99.90
4725;DHT22;2376;53.544;10.226;2022-10-31T15:07:21;16.70;99.90
4725;DHT22;2376;53.544;10.226;2022-10-31T15:09:56;16.60;99.90
4725;DHT22;2376;53.544;10.226;2022-10-31T15:12:26;16.60;99.90
4725;DHT22;2376;53.544;10.226;2022-10-31T15:14:53;16.70;99.90
4725;DHT22;2376;53.544;10.226;2022-10-31T15:17:20;16.90;99.90
4725;DHT22;2376;53.544;10.226;2022-10-31T15:19:47;16.60;99.90
4725;DHT22;2376;53.544;10.226;2022-10-31T15:22:16;16.40;99.90
4725;DHT22;2376;53.544;10.226;2022-10-31T15:24:45;16.40;99.90
4725;DHT22;2376;53.544;10.226;2022-10-31T15:27:13;16.30;99.90
4725;DHT22;2376;53.544;10.226;2022-10-31T15:29:49;16.40;99.90
4725;DHT22;2376;53.544;10.226;2022-10-31T15:32:19;16.50;99.90
4725;DHT22;2376;53.544;10.226;2022-10-31T15:34:48;16.70;99.90
4725;DHT22;2376;53.544;10.226;2022-10-31T15:37:16;16.70;99.90
4725;DHT22;2376;53.544;10.226;2022-10-31T15:39:44;16.60;99.90
4725;DHT22;2376;53.544;10.226;2022-10-31T15:42:20;16.40;99.90
4725;DHT22;2376;53.544;10.226;2022-10-31T15:44:52;16.20;99.90
4725;DHT22;2376;53.544;10.226;2022-10-31T15:47:22;16.20;99.90
4725;DHT22;2376;53.544;10.226;2022-10-31T15:49:52;16.10;99.90
4725;DHT22;2376;53.544;10.226;2022-10-31T15:52:27;15.90;99.90
4725;DHT22;2376;53.544;10.226;2022-10-31T15:54:57;15.90;99.90
4725;DHT22;2376;53.544;10.226;2022-10-31T15:57:24;15.40;99.90
4725;DHT22;2376;53.544;10.226;2022-10-31T15:59:53;15.30;99.90
4725;DHT22;2376;53.544;10.226;2022-10-31T16:02:22;15.10;99.90
4725;DHT22;2376;53.544;10.226;2022-10-31T16:04:52;15.30;99.90
4725;DHT22;2376;53.544;10.226;2022-10-31T16:07:20;15.50;99.90
4725;DHT22;2376;53.544;10.226;2022-10-31T16:09:51;15.70;99.90
4725;DHT22;2376;53.544;10.226;2022-10-31T16:12:19;15.80;99.90